sensor_id;sensor_type;location;lat;lon;timestamp;P1;P2;P0
60245;PMS5003;46107;53.356;-1.524;2023-12-22T00:01:34;13;8;
60245;PMS5003;46107;53.356;-1.524;2023-12-22T00:04:01;10;6;
60245;PMS5003;46107;53.356;-1.524;2023-12-22T00:06:28;10;8;
60245;PMS5003;46107;53.356;-1.524;2023-12-22T00:08:55;12;8;
60245;PMS5003;46107;53.356;-1.524;2023-12-22T00:11:22;11;9;
60245;PMS5003;46107;53.356;-1.524;2023-12-22T00:13:50;11;7;
60245;PMS5003;46107;53.356;-1.524;2023-12-22T00:16:17;19;9;
60245;PMS5003;46107;53.356;-1.524;2023-12-22T00:18:44;15;12;
60245;PMS5003;46107;53.356;-1.524;2023-12-22T00:21:11;11;8;
60245;PMS5003;46107;53.356;-1.524;2023-12-22T00:23:38;13;8;
60245;PMS5003;46107;53.356;-1.524;2023-12-22T00:26:05;16;10;
60245;PMS5003;46107;53.356;-1.524;2023-12-22T00:28:33;13;9;
60245;PMS5003;46107;53.356;-1.524;2023-12-22T00:31:00;16;12;
60245;PMS5003;46107;53.356;-1.524;2023-12-22T00:33:27;8;8;
60245;PMS5003;46107;53.356;-1.524;2023-12-22T00:35:54;11;5;
60245;PMS5003;46107;53.356;-1.524;2023-12-22T00:38:22;11;8;
60245;PMS5003;46107;53.356;-1.524;2023-12-22T00:40:49;5;5;
60245;PMS5003;46107;53.356;-1.524;2023-12-22T00:43:17;9;7;
60245;PMS5003;46107;53.356;-1.524;2023-12-22T00:45:44;7;5;
60245;PMS5003;46107;53.356;-1.524;2023-12-22T00:48:11;9;8;
60245;PMS5003;46107;53.356;-1.524;2023-12-22T00:50:38;16;9;
60245;PMS5003;46107;53.356;-1.524;2023-12-22T00:53:06;11;7;
60245;PMS5003;46107;53.356;-1.524;2023-12-22T00:55:33;6;5;
60245;PMS5003;46107;53.356;-1.524;2023-12-22T00:58:00;9;6;
60245;PMS5003;46107;53.356;-1.524;2023-12-22T01:00:27;16;11;
60245;PMS5003;46107;53.356;-1.524;2023-12-22T01:02:54;13;8;
60245;PMS5003;46107;53.356;-1.524;2023-12-22T01:05:22;7;6;
60245;PMS5003;46107;53.356;-1.524;2023-12-22T01:07:49;6;5;
60245;PMS5003;46107;53.356;-1.524;2023-12-22T01:10:17;10;6;
60245;PMS5003;46107;53.356;-1.524;2023-12-22T01:12:44;5;5;
60245;PMS5003;46107;53.356;-1.524;2023-12-22T01:15:12;8;6;
60245;PMS5003;46107;53.356;-1.524;2023-12-22T01:17:39;9;6;
60245;PMS5003;46107;53.356;-1.524;2023-12-22T01:20:06;7;4;
60245;PMS5003;46107;53.356;-1.524;2023-12-22T01:22:33;7;5;
60245;PMS5003;46107;53.356;-1.524;2023-12-22T01:25:01;6;5;
60245;PMS5003;46107;53.356;-1.524;2023-12-22T01:27:28;5;4;
60245;PMS5003;46107;53.356;-1.524;2023-12-22T01:29:56;6;2;
60245;PMS5003;46107;53.356;-1.524;2023-12-22T01:32:23;4;4;
60245;PMS5003;46107;53.356;-1.524;2023-12-22T01:34:50;5;4;
60245;PMS5003;46107;53.356;-1.524;2023-12-22T01:37:18;5;3;
60245;PMS5003;46107;53.356;-1.524;2023-12-22T01:39:45;4;4;
60245;PMS5003;46107;53.356;-1.524;2023-12-22T01:42:13;3;3;
60245;PMS5003;46107;53.356;-1.524;2023-12-22T01:44:40;7;2;
60245;PMS5003;46107;53.356;-1.524;2023-12-22T01:47:08;4;1;
60245;PMS5003;46107;53.356;-1.524;2023-12-22T01:49:35;4;3;
60245;PMS5003;46107;53.356;-1.524;2023-12-22T01:52:03;3;3;
60245;PMS5003;46107;53.356;-1.524;2023-12-22T01:54:30;2;2;
60245;PMS5003;46107;53.356;-1.524;2023-12-22T01:56:58;5;3;
60245;PMS5003;46107;53.356;-1.524;2023-12-22T01:59:25;3;1;
60245;PMS5003;46107;53.356;-1.524;2023-12-22T02:01:53;1;1;
60245;PMS5003;46107;53.356;-1.524;2023-12-22T02:04:20;4;2;
60245;PMS5003;46107;53.356;-1.524;2023-12-22T02:06:49;2;2;
60245;PMS5003;46107;53.356;-1.524;2023-12-22T02:09:17;1;1;
60245;PMS5003;46107;53.356;-1.524;2023-12-22T02:11:44;1;0;
60245;PMS5003;46107;53.356;-1.524;2023-12-22T02:14:12;1;1;
60245;PMS5003;46107;53.356;-1.524;2023-12-22T02:16:40;1;1;
60245;PMS5003;46107;53.356;-1.524;2023-12-22T02:19:18;1;1;
60245;PMS5003;46107;53.356;-1.524;2023-12-22T02:22:01;2;2;
60245;PMS5003;46107;53.356;-1.524;2023-12-22T02:24:29;0;0;
60245;PMS5003;46107;53.356;-1.524;2023-12-22T02:26:59;1;1;
60245;PMS5003;46107;53.356;-1.524;2023-12-22T02:29:32;0;0;
60245;PMS5003;46107;53.356;-1.524;2023-12-22T02:32:05;1;0;
60245;PMS5003;46107;53.356;-1.524;2023-12-22T02:34:38;0;0;
60245;PMS5003;46107;53.356;-1.524;2023-12-22T02:37:09;0;0;
60245;PMS5003;46107;53.356;-1.524;2023-12-22T02:39:38;1;1;
60245;PMS5003;46107;53.356;-1.524;2023-12-22T02:42:07;1;1;
60245;PMS5003;46107;53.356;-1.524;2023-12-22T02:44:35;0;0;
60245;PMS5003;46107;53.356;-1.524;2023-12-22T02:47:03;6;4;
60245;PMS5003;46107;53.356;-1.524;2023-12-22T02:49:30;1;1;
60245;PMS5003;46107;53.356;-1.524;2023-12-22T02:51:58;1;0;
60245;PMS5003;46107;53.356;-1.524;2023-12-22T02:54:25;1;1;
60245;PMS5003;46107;53.356;-1.524;2023-12-22T02:56:53;1;1;
60245;PMS5003;46107;53.356;-1.524;2023-12-22T02:59:21;0;0;
60245;PMS5003;46107;53.356;-1.524;2023-12-22T03:01:48;1;1;
60245;PMS5003;46107;53.356;-1.524;2023-12-22T03:04:15;0;0;
60245;PMS5003;46107;53.356;-1.524;2023-12-22T03:06:43;0;0;
60245;PMS5003;46107;53.356;-1.524;2023-12-22T03:09:10;0;0;
60245;PMS5003;46107;53.356;-1.524;2023-12-22T03:11:38;0;0;
60245;PMS5003;46107;53.356;-1.524;2023-12-22T03:14:05;0;0;
60245;PMS5003;46107;53.356;-1.524;2023-12-22T03:16:32;0;0;
60245;PMS5003;46107;53.356;-1.524;2023-12-22T03:19:00;0;0;
60245;PMS5003;46107;53.356;-1.524;2023-12-22T03:21:27;0;0;
60245;PMS5003;46107;53.356;-1.524;2023-12-22T03:23:55;0;0;
60245;PMS5003;46107;53.356;-1.524;2023-12-22T03:26:23;0;0;
60245;PMS5003;46107;53.356;-1.524;2023-12-22T03:28:52;0;0;
60245;PMS5003;46107;53.356;-1.524;2023-12-22T03:31:20;0;0;
60245;PMS5003;46107;53.356;-1.524;2023-12-22T03:33:47;0;0;
60245;PMS5003;46107;53.356;-1.524;2023-12-22T03:36:15;0;0;
60245;PMS5003;46107;53.356;-1.524;2023-12-22T03:38:42;0;0;
60245;PMS5003;46107;53.356;-1.524;2023-12-22T03:41:10;0;0;
60245;PMS5003;46107;53.356;-1.524;2023-12-22T03:43:37;0;0;
60245;PMS5003;46107;53.356;-1.524;2023-12-22T03:46:05;0;0;
60245;PMS5003;46107;53.356;-1.524;2023-12-22T03:48:32;0;0;
60245;PMS5003;46107;53.356;-1.524;2023-12-22T03:51:00;0;0;
60245;PMS5003;46107;53.356;-1.524;2023-12-22T03:53:27;0;0;
60245;PMS5003;46107;53.356;-1.524;2023-12-22T03:55:55;0;0;
60245;PMS5003;46107;53.356;-1.524;2023-12-22T03:58:22;0;0;
60245;PMS5003;46107;53.356;-1.524;2023-12-22T04:00:49;1;0;
60245;PMS5003;46107;53.356;-1.524;2023-12-22T04:03:17;0;0;
60245;PMS5003;46107;53.356;-1.524;2023-12-22T04:05:44;0;0;
60245;PMS5003;46107;53.356;-1.524;2023-12-22T04:08:12;0;0;
60245;PMS5003;46107;53.356;-1.524;2023-12-22T04:10:39;0;0;
60245;PMS5003;46107;53.356;-1.524;2023-12-22T04:13:07;0;0;
60245;PMS5003;46107;53.356;-1.524;2023-12-22T04:15:34;0;0;
60245;PMS5003;46107;53.356;-1.524;2023-12-22T04:18:01;0;0;
60245;PMS5003;46107;53.356;-1.524;2023-12-22T04:20:29;0;0;
60245;PMS5003;46107;53.356;-1.524;2023-12-22T04:22:56;2;1;
60245;PMS5003;46107;53.356;-1.524;2023-12-22T04:25:24;0;0;
60245;PMS5003;46107;53.356;-1.524;2023-12-22T04:27:51;0;0;
60245;PMS5003;46107;53.356;-1.524;2023-12-22T04:30:19;0;0;
60245;PMS5003;46107;53.356;-1.524;2023-12-22T04:32:46;0;0;
60245;PMS5003;46107;53.356;-1.524;2023-12-22T04:35:13;0;0;
60245;PMS5003;46107;53.356;-1.524;2023-12-22T04:37:41;0;0;
60245;PMS5003;46107;53.356;-1.524;2023-12-22T04:40:09;1;0;
60245;PMS5003;46107;53.356;-1.524;2023-12-22T04:42:37;0;0;
60245;PMS5003;46107;53.356;-1.524;2023-12-22T04:45:05;1;0;
60245;PMS5003;46107;53.356;-1.524;2023-12-22T04:47:32;0;0;
60245;PMS5003;46107;53.356;-1.524;2023-12-22T04:50:00;0;0;
60245;PMS5003;46107;53.356;-1.524;2023-12-22T04:52:27;0;0;
60245;PMS5003;46107;53.356;-1.524;2023-12-22T04:54:55;3;0;
60245;PMS5003;46107;53.356;-1.524;2023-12-22T04:57:22;1;1;
60245;PMS5003;46107;53.356;-1.524;2023-12-22T04:59:50;0;0;
60245;PMS5003;46107;53.356;-1.524;2023-12-22T05:02:17;0;0;
60245;PMS5003;46107;53.356;-1.524;2023-12-22T05:04:45;0;0;
60245;PMS5003;46107;53.356;-1.524;2023-12-22T05:07:12;2;1;
60245;PMS5003;46107;53.356;-1.524;2023-12-22T05:09:40;0;0;
60245;PMS5003;46107;53.356;-1.524;2023-12-22T05:12:08;1;1;
60245;PMS5003;46107;53.356;-1.524;2023-12-22T05:14:35;1;1;
60245;PMS5003;46107;53.356;-1.524;2023-12-22T05:17:03;0;0;
60245;PMS5003;46107;53.356;-1.524;2023-12-22T05:19:30;0;0;
60245;PMS5003;46107;53.356;-1.524;2023-12-22T05:21:58;0;0;
60245;PMS5003;46107;53.356;-1.524;2023-12-22T05:24:25;0;0;
60245;PMS5003;46107;53.356;-1.524;2023-12-22T05:26:53;0;0;
60245;PMS5003;46107;53.356;-1.524;2023-12-22T05:29:21;0;0;
60245;PMS5003;46107;53.356;-1.524;2023-12-22T05:31:48;0;0;
60245;PMS5003;46107;53.356;-1.524;2023-12-22T05:34:15;1;1;
60245;PMS5003;46107;53.356;-1.524;2023-12-22T05:36:43;1;0;
60245;PMS5003;46107;53.356;-1.524;2023-12-22T05:39:10;1;0;
60245;PMS5003;46107;53.356;-1.524;2023-12-22T05:41:38;0;0;
60245;PMS5003;46107;53.356;-1.524;2023-12-22T05:44:05;1;0;
60245;PMS5003;46107;53.356;-1.524;2023-12-22T05:46:35;3;3;
60245;PMS5003;46107;53.356;-1.524;2023-12-22T05:49:03;1;0;
60245;PMS5003;46107;53.356;-1.524;2023-12-22T05:51:35;0;0;
60245;PMS5003;46107;53.356;-1.524;2023-12-22T05:54:03;0;0;
60245;PMS5003;46107;53.356;-1.524;2023-12-22T05:56:31;0;0;
60245;PMS5003;46107;53.356;-1.524;2023-12-22T05:58:58;1;1;
60245;PMS5003;46107;53.356;-1.524;2023-12-22T06:01:26;2;2;
60245;PMS5003;46107;53.356;-1.524;2023-12-22T06:03:53;1;1;
60245;PMS5003;46107;53.356;-1.524;2023-12-22T06:06:20;0;0;
60245;PMS5003;46107;53.356;-1.524;2023-12-22T06:08:48;0;0;
60245;PMS5003;46107;53.356;-1.524;2023-12-22T06:11:15;0;0;
60245;PMS5003;46107;53.356;-1.524;2023-12-22T06:13:43;0;0;
60245;PMS5003;46107;53.356;-1.524;2023-12-22T06:16:11;1;0;
60245;PMS5003;46107;53.356;-1.524;2023-12-22T06:18:39;0;0;
60245;PMS5003;46107;53.356;-1.524;2023-12-22T06:21:06;1;1;
60245;PMS5003;46107;53.356;-1.524;2023-12-22T06:23:34;2;0;
60245;PMS5003;46107;53.356;-1.524;2023-12-22T06:26:01;0;0;
60245;PMS5003;46107;53.356;-1.524;2023-12-22T06:28:28;1;0;
60245;PMS5003;46107;53.356;-1.524;2023-12-22T06:30:56;0;0;
60245;PMS5003;46107;53.356;-1.524;2023-12-22T06:33:23;0;0;
60245;PMS5003;46107;53.356;-1.524;2023-12-22T06:35:51;0;0;
60245;PMS5003;46107;53.356;-1.524;2023-12-22T06:38:18;0;0;
60245;PMS5003;46107;53.356;-1.524;2023-12-22T06:40:45;0;0;
60245;PMS5003;46107;53.356;-1.524;2023-12-22T06:43:13;0;0;
60245;PMS5003;46107;53.356;-1.524;2023-12-22T06:45:40;0;0;
60245;PMS5003;46107;53.356;-1.524;2023-12-22T06:48:08;0;0;
60245;PMS5003;46107;53.356;-1.524;2023-12-22T06:50:35;0;0;
60245;PMS5003;46107;53.356;-1.524;2023-12-22T06:53:03;0;0;
60245;PMS5003;46107;53.356;-1.524;2023-12-22T06:55:30;0;0;
60245;PMS5003;46107;53.356;-1.524;2023-12-22T06:57:58;0;0;
60245;PMS5003;46107;53.356;-1.524;2023-12-22T07:00:25;0;0;
60245;PMS5003;46107;53.356;-1.524;2023-12-22T07:02:53;0;0;
60245;PMS5003;46107;53.356;-1.524;2023-12-22T07:05:36;0;0;
60245;PMS5003;46107;53.356;-1.524;2023-12-22T07:08:04;0;0;
60245;PMS5003;46107;53.356;-1.524;2023-12-22T07:10:31;0;0;
60245;PMS5003;46107;53.356;-1.524;2023-12-22T07:12:59;0;0;
60245;PMS5003;46107;53.356;-1.524;2023-12-22T07:15:26;0;0;
60245;PMS5003;46107;53.356;-1.524;2023-12-22T07:17:54;0;0;
60245;PMS5003;46107;53.356;-1.524;2023-12-22T07:20:21;0;0;
60245;PMS5003;46107;53.356;-1.524;2023-12-22T07:22:49;0;0;
60245;PMS5003;46107;53.356;-1.524;2023-12-22T07:25:17;0;0;
60245;PMS5003;46107;53.356;-1.524;2023-12-22T07:27:45;0;0;
60245;PMS5003;46107;53.356;-1.524;2023-12-22T07:30:13;1;0;
60245;PMS5003;46107;53.356;-1.524;2023-12-22T07:32:40;0;0;
60245;PMS5003;46107;53.356;-1.524;2023-12-22T07:35:09;1;1;
60245;PMS5003;46107;53.356;-1.524;2023-12-22T07:37:36;2;1;
60245;PMS5003;46107;53.356;-1.524;2023-12-22T07:40:04;0;0;
60245;PMS5003;46107;53.356;-1.524;2023-12-22T07:42:32;5;2;
60245;PMS5003;46107;53.356;-1.524;2023-12-22T07:44:59;1;1;
60245;PMS5003;46107;53.356;-1.524;2023-12-22T07:47:27;1;1;
60245;PMS5003;46107;53.356;-1.524;2023-12-22T07:49:54;1;1;
60245;PMS5003;46107;53.356;-1.524;2023-12-22T07:52:21;1;1;
60245;PMS5003;46107;53.356;-1.524;2023-12-22T07:54:49;0;0;
60245;PMS5003;46107;53.356;-1.524;2023-12-22T07:57:16;3;2;
60245;PMS5003;46107;53.356;-1.524;2023-12-22T07:59:43;1;1;
60245;PMS5003;46107;53.356;-1.524;2023-12-22T08:02:11;2;1;
60245;PMS5003;46107;53.356;-1.524;2023-12-22T08:04:38;0;0;
60245;PMS5003;46107;53.356;-1.524;2023-12-22T08:07:06;0;0;
60245;PMS5003;46107;53.356;-1.524;2023-12-22T08:09:33;0;0;
60245;PMS5003;46107;53.356;-1.524;2023-12-22T08:12:01;1;0;
60245;PMS5003;46107;53.356;-1.524;2023-12-22T08:14:28;1;1;
60245;PMS5003;46107;53.356;-1.524;2023-12-22T08:16:56;1;1;
60245;PMS5003;46107;53.356;-1.524;2023-12-22T08:19:23;0;0;
60245;PMS5003;46107;53.356;-1.524;2023-12-22T08:21:52;2;1;
60245;PMS5003;46107;53.356;-1.524;2023-12-22T08:24:19;0;0;
60245;PMS5003;46107;53.356;-1.524;2023-12-22T08:26:47;0;0;
60245;PMS5003;46107;53.356;-1.524;2023-12-22T08:29:14;1;0;
60245;PMS5003;46107;53.356;-1.524;2023-12-22T08:31:41;3;0;
60245;PMS5003;46107;53.356;-1.524;2023-12-22T08:34:09;2;0;
60245;PMS5003;46107;53.356;-1.524;2023-12-22T08:36:36;0;0;
60245;PMS5003;46107;53.356;-1.524;2023-12-22T08:39:03;1;1;
60245;PMS5003;46107;53.356;-1.524;2023-12-22T08:41:31;1;1;
60245;PMS5003;46107;53.356;-1.524;2023-12-22T08:43:58;3;2;
60245;PMS5003;46107;53.356;-1.524;2023-12-22T08:46:26;1;1;
60245;PMS5003;46107;53.356;-1.524;2023-12-22T08:48:53;2;2;
60245;PMS5003;46107;53.356;-1.524;2023-12-22T08:51:21;3;1;
60245;PMS5003;46107;53.356;-1.524;2023-12-22T08:53:48;2;1;
60245;PMS5003;46107;53.356;-1.524;2023-12-22T08:56:15;1;1;
60245;PMS5003;46107;53.356;-1.524;2023-12-22T08:58:43;2;2;
60245;PMS5003;46107;53.356;-1.524;2023-12-22T09:01:14;2;2;
60245;PMS5003;46107;53.356;-1.524;2023-12-22T09:03:41;3;1;
60245;PMS5003;46107;53.356;-1.524;2023-12-22T09:06:08;3;1;
60245;PMS5003;46107;53.356;-1.524;2023-12-22T09:08:36;1;0;
60245;PMS5003;46107;53.356;-1.524;2023-12-22T09:11:03;3;1;
60245;PMS5003;46107;53.356;-1.524;2023-12-22T09:13:31;1;1;
60245;PMS5003;46107;53.356;-1.524;2023-12-22T09:15:58;1;1;
60245;PMS5003;46107;53.356;-1.524;2023-12-22T09:18:25;3;0;
60245;PMS5003;46107;53.356;-1.524;2023-12-22T09:20:54;1;0;
60245;PMS5003;46107;53.356;-1.524;2023-12-22T09:23:21;2;1;
60245;PMS5003;46107;53.356;-1.524;2023-12-22T09:25:49;1;1;
60245;PMS5003;46107;53.356;-1.524;2023-12-22T09:28:16;1;1;
60245;PMS5003;46107;53.356;-1.524;2023-12-22T09:30:44;5;3;
60245;PMS5003;46107;53.356;-1.524;2023-12-22T09:33:11;6;2;
60245;PMS5003;46107;53.356;-1.524;2023-12-22T09:35:39;0;0;
60245;PMS5003;46107;53.356;-1.524;2023-12-22T09:38:06;3;1;
60245;PMS5003;46107;53.356;-1.524;2023-12-22T09:40:33;2;2;
60245;PMS5003;46107;53.356;-1.524;2023-12-22T09:43:01;3;2;
60245;PMS5003;46107;53.356;-1.524;2023-12-22T09:45:29;3;2;
60245;PMS5003;46107;53.356;-1.524;2023-12-22T09:47:57;3;3;
60245;PMS5003;46107;53.356;-1.524;2023-12-22T09:50:26;1;1;
60245;PMS5003;46107;53.356;-1.524;2023-12-22T09:52:55;2;1;
60245;PMS5003;46107;53.356;-1.524;2023-12-22T09:55:23;1;1;
60245;PMS5003;46107;53.356;-1.524;2023-12-22T09:57:51;2;2;
60245;PMS5003;46107;53.356;-1.524;2023-12-22T10:00:20;1;0;
60245;PMS5003;46107;53.356;-1.524;2023-12-22T10:02:49;3;1;
60245;PMS5003;46107;53.356;-1.524;2023-12-22T10:05:16;1;1;
60245;PMS5003;46107;53.356;-1.524;2023-12-22T10:07:44;1;1;
60245;PMS5003;46107;53.356;-1.524;2023-12-22T10:10:12;1;1;
60245;PMS5003;46107;53.356;-1.524;2023-12-22T10:12:39;1;1;
60245;PMS5003;46107;53.356;-1.524;2023-12-22T10:15:10;3;1;
60245;PMS5003;46107;53.356;-1.524;2023-12-22T10:17:39;3;0;
60245;PMS5003;46107;53.356;-1.524;2023-12-22T10:20:08;0;0;
60245;PMS5003;46107;53.356;-1.524;2023-12-22T10:22:36;3;1;
60245;PMS5003;46107;53.356;-1.524;2023-12-22T10:25:03;4;1;
60245;PMS5003;46107;53.356;-1.524;2023-12-22T10:27:31;2;2;
60245;PMS5003;46107;53.356;-1.524;2023-12-22T10:29:59;1;1;
60245;PMS5003;46107;53.356;-1.524;2023-12-22T10:32:26;1;1;
60245;PMS5003;46107;53.356;-1.524;2023-12-22T10:34:54;2;2;
60245;PMS5003;46107;53.356;-1.524;2023-12-22T10:37:22;1;1;
60245;PMS5003;46107;53.356;-1.524;2023-12-22T10:39:51;1;1;
60245;PMS5003;46107;53.356;-1.524;2023-12-22T10:42:19;1;1;
60245;PMS5003;46107;53.356;-1.524;2023-12-22T10:44:47;1;1;
60245;PMS5003;46107;53.356;-1.524;2023-12-22T10:47:14;2;1;
60245;PMS5003;46107;53.356;-1.524;2023-12-22T10:49:46;3;2;
60245;PMS5003;46107;53.356;-1.524;2023-12-22T10:52:15;3;1;
60245;PMS5003;46107;53.356;-1.524;2023-12-22T10:54:43;1;1;
60245;PMS5003;46107;53.356;-1.524;2023-12-22T10:57:11;1;1;
60245;PMS5003;46107;53.356;-1.524;2023-12-22T10:59:40;4;2;
60245;PMS5003;46107;53.356;-1.524;2023-12-22T11:02:15;0;0;
60245;PMS5003;46107;53.356;-1.524;2023-12-22T11:04:46;1;1;
60245;PMS5003;46107;53.356;-1.524;2023-12-22T11:07:23;0;0;
60245;PMS5003;46107;53.356;-1.524;2023-12-22T11:09:51;1;1;
60245;PMS5003;46107;53.356;-1.524;2023-12-22T11:12:23;2;1;
60245;PMS5003;46107;53.356;-1.524;2023-12-22T11:14:53;2;1;
60245;PMS5003;46107;53.356;-1.524;2023-12-22T11:17:21;3;2;
60245;PMS5003;46107;53.356;-1.524;2023-12-22T11:19:49;2;2;
60245;PMS5003;46107;53.356;-1.524;2023-12-22T11:22:19;2;0;
60245;PMS5003;46107;53.356;-1.524;2023-12-22T11:24:48;2;2;
60245;PMS5003;46107;53.356;-1.524;2023-12-22T11:27:16;3;2;
60245;PMS5003;46107;53.356;-1.524;2023-12-22T11:29:45;2;2;
60245;PMS5003;46107;53.356;-1.524;2023-12-22T11:32:14;0;0;
60245;PMS5003;46107;53.356;-1.524;2023-12-22T11:34:42;2;2;
60245;PMS5003;46107;53.356;-1.524;2023-12-22T11:37:10;1;1;
60245;PMS5003;46107;53.356;-1.524;2023-12-22T11:39:38;2;1;
60245;PMS5003;46107;53.356;-1.524;2023-12-22T11:42:06;1;1;
60245;PMS5003;46107;53.356;-1.524;2023-12-22T11:44:36;2;1;
60245;PMS5003;46107;53.356;-1.524;2023-12-22T11:47:04;3;1;
60245;PMS5003;46107;53.356;-1.524;2023-12-22T11:49:33;4;2;
60245;PMS5003;46107;53.356;-1.524;2023-12-22T11:52:17;1;1;
60245;PMS5003;46107;53.356;-1.524;2023-12-22T11:54:51;1;1;
60245;PMS5003;46107;53.356;-1.524;2023-12-22T11:57:35;2;2;
60245;PMS5003;46107;53.356;-1.524;2023-12-22T12:00:06;4;3;
60245;PMS5003;46107;53.356;-1.524;2023-12-22T12:02:35;4;2;
60245;PMS5003;46107;53.356;-1.524;2023-12-22T12:05:04;2;1;
60245;PMS5003;46107;53.356;-1.524;2023-12-22T12:07:42;2;2;
60245;PMS5003;46107;53.356;-1.524;2023-12-22T12:10:11;2;1;
60245;PMS5003;46107;53.356;-1.524;2023-12-22T12:13:04;1;1;
60245;PMS5003;46107;53.356;-1.524;2023-12-22T12:15:31;1;1;
60245;PMS5003;46107;53.356;-1.524;2023-12-22T12:18:00;2;2;
60245;PMS5003;46107;53.356;-1.524;2023-12-22T12:20:28;1;1;
60245;PMS5003;46107;53.356;-1.524;2023-12-22T12:22:56;1;1;
60245;PMS5003;46107;53.356;-1.524;2023-12-22T12:25:24;2;2;
60245;PMS5003;46107;53.356;-1.524;2023-12-22T12:28:00;2;2;
60245;PMS5003;46107;53.356;-1.524;2023-12-22T12:30:29;2;2;
60245;PMS5003;46107;53.356;-1.524;2023-12-22T12:32:58;3;1;
60245;PMS5003;46107;53.356;-1.524;2023-12-22T12:35:32;1;1;
60245;PMS5003;46107;53.356;-1.524;2023-12-22T12:38:00;5;1;
60245;PMS5003;46107;53.356;-1.524;2023-12-22T12:40:27;3;2;
60245;PMS5003;46107;53.356;-1.524;2023-12-22T12:42:55;3;1;
60245;PMS5003;46107;53.356;-1.524;2023-12-22T12:45:23;3;1;
60245;PMS5003;46107;53.356;-1.524;2023-12-22T12:47:55;3;2;
60245;PMS5003;46107;53.356;-1.524;2023-12-22T12:50:22;4;3;
60245;PMS5003;46107;53.356;-1.524;2023-12-22T12:52:51;2;2;
60245;PMS5003;46107;53.356;-1.524;2023-12-22T12:55:18;4;2;
60245;PMS5003;46107;53.356;-1.524;2023-12-22T12:57:47;1;1;
60245;PMS5003;46107;53.356;-1.524;2023-12-22T13:00:15;6;2;
60245;PMS5003;46107;53.356;-1.524;2023-12-22T13:02:43;1;1;
60245;PMS5003;46107;53.356;-1.524;2023-12-22T13:05:20;2;1;
60245;PMS5003;46107;53.356;-1.524;2023-12-22T13:07:48;8;3;
60245;PMS5003;46107;53.356;-1.524;2023-12-22T13:10:23;2;1;
60245;PMS5003;46107;53.356;-1.524;2023-12-22T13:12:51;2;2;
60245;PMS5003;46107;53.356;-1.524;2023-12-22T13:15:19;2;2;
60245;PMS5003;46107;53.356;-1.524;2023-12-22T13:17:46;3;2;
60245;PMS5003;46107;53.356;-1.524;2023-12-22T13:20:14;1;1;
60245;PMS5003;46107;53.356;-1.524;2023-12-22T13:22:41;3;1;
60245;PMS5003;46107;53.356;-1.524;2023-12-22T13:25:09;3;2;
60245;PMS5003;46107;53.356;-1.524;2023-12-22T13:27:44;2;2;
60245;PMS5003;46107;53.356;-1.524;2023-12-22T13:30:12;2;2;
60245;PMS5003;46107;53.356;-1.524;2023-12-22T13:32:39;1;1;
60245;PMS5003;46107;53.356;-1.524;2023-12-22T13:35:07;1;1;
60245;PMS5003;46107;53.356;-1.524;2023-12-22T13:37:39;3;2;
60245;PMS5003;46107;53.356;-1.524;2023-12-22T13:40:07;1;1;
60245;PMS5003;46107;53.356;-1.524;2023-12-22T13:42:35;5;1;
60245;PMS5003;46107;53.356;-1.524;2023-12-22T13:45:03;5;3;
60245;PMS5003;46107;53.356;-1.524;2023-12-22T13:47:31;3;3;
60245;PMS5003;46107;53.356;-1.524;2023-12-22T13:49:59;2;2;
60245;PMS5003;46107;53.356;-1.524;2023-12-22T13:52:26;6;3;
60245;PMS5003;46107;53.356;-1.524;2023-12-22T13:54:54;2;2;
60245;PMS5003;46107;53.356;-1.524;2023-12-22T13:57:22;2;2;
60245;PMS5003;46107;53.356;-1.524;2023-12-22T13:59:49;3;2;
60245;PMS5003;46107;53.356;-1.524;2023-12-22T14:02:17;3;3;
60245;PMS5003;46107;53.356;-1.524;2023-12-22T14:04:47;3;2;
60245;PMS5003;46107;53.356;-1.524;2023-12-22T14:07:14;2;1;
60245;PMS5003;46107;53.356;-1.524;2023-12-22T14:09:42;2;2;
60245;PMS5003;46107;53.356;-1.524;2023-12-22T14:12:09;3;2;
60245;PMS5003;46107;53.356;-1.524;2023-12-22T14:14:37;5;2;
60245;PMS5003;46107;53.356;-1.524;2023-12-22T14:17:04;2;2;
60245;PMS5003;46107;53.356;-1.524;2023-12-22T14:19:31;2;2;
60245;PMS5003;46107;53.356;-1.524;2023-12-22T14:21:59;3;2;
60245;PMS5003;46107;53.356;-1.524;2023-12-22T14:24:26;1;1;
60245;PMS5003;46107;53.356;-1.524;2023-12-22T14:26:54;3;2;
60245;PMS5003;46107;53.356;-1.524;2023-12-22T14:29:23;1;1;
60245;PMS5003;46107;53.356;-1.524;2023-12-22T14:31:50;2;2;
60245;PMS5003;46107;53.356;-1.524;2023-12-22T14:34:18;1;1;
60245;PMS5003;46107;53.356;-1.524;2023-12-22T14:36:45;3;2;
60245;PMS5003;46107;53.356;-1.524;2023-12-22T14:39:13;0;0;
60245;PMS5003;46107;53.356;-1.524;2023-12-22T14:41:40;3;1;
60245;PMS5003;46107;53.356;-1.524;2023-12-22T14:44:08;2;2;
60245;PMS5003;46107;53.356;-1.524;2023-12-22T14:46:39;3;1;
60245;PMS5003;46107;53.356;-1.524;2023-12-22T14:49:06;4;2;
60245;PMS5003;46107;53.356;-1.524;2023-12-22T14:51:35;2;2;
60245;PMS5003;46107;53.356;-1.524;2023-12-22T14:54:03;1;0;
60245;PMS5003;46107;53.356;-1.524;2023-12-22T14:56:31;3;3;
60245;PMS5003;46107;53.356;-1.524;2023-12-22T14:58:58;1;1;
60245;PMS5003;46107;53.356;-1.524;2023-12-22T15:01:26;2;2;
60245;PMS5003;46107;53.356;-1.524;2023-12-22T15:03:53;2;2;
60245;PMS5003;46107;53.356;-1.524;2023-12-22T15:06:21;2;1;
60245;PMS5003;46107;53.356;-1.524;2023-12-22T15:08:48;2;1;
60245;PMS5003;46107;53.356;-1.524;2023-12-22T15:11:15;2;2;
60245;PMS5003;46107;53.356;-1.524;2023-12-22T15:13:43;1;1;
60245;PMS5003;46107;53.356;-1.524;2023-12-22T15:16:10;2;2;
60245;PMS5003;46107;53.356;-1.524;2023-12-22T15:18:38;4;0;
60245;PMS5003;46107;53.356;-1.524;2023-12-22T15:21:05;1;1;
60245;PMS5003;46107;53.356;-1.524;2023-12-22T15:23:33;1;1;
60245;PMS5003;46107;53.356;-1.524;2023-12-22T15:26:00;5;3;
60245;PMS5003;46107;53.356;-1.524;2023-12-22T15:28:28;1;1;
60245;PMS5003;46107;53.356;-1.524;2023-12-22T15:30:55;4;1;
60245;PMS5003;46107;53.356;-1.524;2023-12-22T15:33:23;6;3;
60245;PMS5003;46107;53.356;-1.524;2023-12-22T15:35:53;2;1;
60245;PMS5003;46107;53.356;-1.524;2023-12-22T15:38:22;4;2;
60245;PMS5003;46107;53.356;-1.524;2023-12-22T15:40:49;3;2;
60245;PMS5003;46107;53.356;-1.524;2023-12-22T15:43:17;1;0;
60245;PMS5003;46107;53.356;-1.524;2023-12-22T15:45:44;3;2;
60245;PMS5003;46107;53.356;-1.524;2023-12-22T15:48:13;0;0;
60245;PMS5003;46107;53.356;-1.524;2023-12-22T15:50:41;4;1;
60245;PMS5003;46107;53.356;-1.524;2023-12-22T15:53:08;0;0;
60245;PMS5003;46107;53.356;-1.524;2023-12-22T15:55:35;5;2;
60245;PMS5003;46107;53.356;-1.524;2023-12-22T15:58:03;2;2;
60245;PMS5003;46107;53.356;-1.524;2023-12-22T16:00:30;1;1;
60245;PMS5003;46107;53.356;-1.524;2023-12-22T16:02:58;6;4;
60245;PMS5003;46107;53.356;-1.524;2023-12-22T16:05:25;3;1;
60245;PMS5003;46107;53.356;-1.524;2023-12-22T16:07:52;4;1;
60245;PMS5003;46107;53.356;-1.524;2023-12-22T16:10:20;2;2;
60245;PMS5003;46107;53.356;-1.524;2023-12-22T16:12:48;2;2;
60245;PMS5003;46107;53.356;-1.524;2023-12-22T16:15:15;2;2;
60245;PMS5003;46107;53.356;-1.524;2023-12-22T16:17:43;5;2;
60245;PMS5003;46107;53.356;-1.524;2023-12-22T16:20:11;1;1;
60245;PMS5003;46107;53.356;-1.524;2023-12-22T16:22:39;1;1;
60245;PMS5003;46107;53.356;-1.524;2023-12-22T16:25:06;5;3;
60245;PMS5003;46107;53.356;-1.524;2023-12-22T16:27:33;1;1;
60245;PMS5003;46107;53.356;-1.524;2023-12-22T16:30:01;3;2;
60245;PMS5003;46107;53.356;-1.524;2023-12-22T16:32:29;3;2;
60245;PMS5003;46107;53.356;-1.524;2023-12-22T16:34:57;4;4;
60245;PMS5003;46107;53.356;-1.524;2023-12-22T16:37:24;4;3;
60245;PMS5003;46107;53.356;-1.524;2023-12-22T16:39:52;3;2;